KFOZ

Details ICAO KFOZ
Name BIGFORK MUNI
Region United States
Timezone America/Chicago (UTC-6.0)
Plans Departing 0
Arriving 1
Stats Elevation 1,348 ft / 411 m (AMSL)
Location 47.782834° -93.650194°
Runways 1
Magnetic Variation 0.196° E
Sunrise 2017-12-18 14:00:32 UTC / 2017-12-18 08:00:32 Local
Sunset 2017-12-18 22:24:51 UTC / 2017-12-18 16:24:51 Local
Advertisement - Login to hide

Runways

ID Width Length Bearing (true) Bearing (mag) Surface Threshold Offset Overrun Length
15 75 ft / 23 m 3,103 ft / 946 m 151.12° 150.92° Asphalt 0 ft / 0 m 0 ft / 0 m
33 75 ft / 23 m 3,103 ft / 946 m 331.12° 330.92° Asphalt 0 ft / 0 m 0 ft / 0 m

Map

Weather


0- 5 10 15 20 25 30 35+ Temperature / ° C

Clouds and Precipitation
Forecast for 2017-12-18 18:00 UTC. Updated 2 hours ago

Ground ~20,000 ft ~40,000 ft Winds

METAR

KFOZ 181433Z AUTO 20009KT 4SM BR OVC006 M01/M03 A2959 RMK AO2

TAF

Not found

Frequencies

Unicom 122.90 MHz CTAF
Warning: Do not use this data for real-world aviation or navigation. No guarantee of current accuracy is given.